createdAt,value
2023-02-17T00:03:41.688Z,8.40
2023-02-17T00:08:47.097Z,8.40
2023-02-17T00:13:50.347Z,8.50
2023-02-17T00:18:55.829Z,8.50
2023-02-17T00:24:01.467Z,8.50
2023-02-17T00:29:04.830Z,8.50
2023-02-17T00:34:08.181Z,8.60
2023-02-17T00:39:16.078Z,8.50
2023-02-17T00:44:21.893Z,8.50
2023-02-17T00:49:28.527Z,8.40
2023-02-17T00:54:35.069Z,8.50
2023-02-17T00:59:38.579Z,8.60
2023-02-17T01:04:44.101Z,8.60
2023-02-17T01:09:52.749Z,8.70
2023-02-17T01:14:56.020Z,8.70
2023-02-17T01:20:01.240Z,8.70
2023-02-17T01:25:06.510Z,8.60
2023-02-17T01:30:10.899Z,8.50
2023-02-17T01:35:14.391Z,8.40
2023-02-17T01:40:19.531Z,8.50
2023-02-17T01:45:47.597Z,8.50
2023-02-17T01:50:54.999Z,8.70
2023-02-17T01:55:59.995Z,8.70
2023-02-17T02:01:05.937Z,8.80
2023-02-17T02:06:12.734Z,8.90
2023-02-17T02:11:17.271Z,8.90
2023-02-17T02:16:29.761Z,8.90
2023-02-17T02:22:08.527Z,9.00
2023-02-17T02:27:45.779Z,9.00
2023-02-17T02:33:01.088Z,9.10
2023-02-17T02:38:11.931Z,9.10
2023-02-17T02:43:17.123Z,9.10
2023-02-17T02:48:21.828Z,9.10
2023-02-17T02:53:57.623Z,9.10
2023-02-17T02:59:11.364Z,9.10
2023-02-17T03:04:23.534Z,9.20
2023-02-17T03:09:29.627Z,9.20
2023-02-17T03:14:38.649Z,9.20
2023-02-17T03:19:45.609Z,9.20
2023-02-17T03:24:49.369Z,9.20
2023-02-17T03:29:53.177Z,9.30
2023-02-17T03:34:58.500Z,9.30
2023-02-17T03:40:02.123Z,9.30
2023-02-17T03:45:05.932Z,9.30
2023-02-17T03:50:11.249Z,9.30
2023-02-17T03:55:14.852Z,9.30
2023-02-17T04:00:18.529Z,9.30
2023-02-17T04:05:23.319Z,9.40
2023-02-17T04:10:26.489Z,9.30
2023-02-17T04:15:30.244Z,9.40
2023-02-17T04:20:35.179Z,9.40
2023-02-17T04:25:39.198Z,9.50
2023-02-17T04:30:45.508Z,9.50
2023-02-17T04:35:50.092Z,9.50
2023-02-17T04:40:54.733Z,9.50
2023-02-17T04:45:58.303Z,9.50
2023-02-17T04:51:02.996Z,9.50
2023-02-17T04:56:07.444Z,9.50
2023-02-17T05:01:10.928Z,9.60
2023-02-17T05:06:15.671Z,9.60
2023-02-17T05:11:19.341Z,9.60
2023-02-17T05:16:22.679Z,9.60
2023-02-17T05:21:27.407Z,9.60
2023-02-17T05:26:31.113Z,9.60
2023-02-17T05:31:34.635Z,9.60
2023-02-17T05:36:39.370Z,9.60
2023-02-17T05:41:42.718Z,9.60
2023-02-17T05:46:46.050Z,9.60
2023-02-17T05:51:50.879Z,9.70
2023-02-17T05:56:54.093Z,9.70
2023-02-17T06:01:57.413Z,9.80
2023-02-17T06:07:02.019Z,9.80
2023-02-17T06:12:05.726Z,9.90
2023-02-17T06:17:08.965Z,9.90
2023-02-17T06:22:13.657Z,10.00
2023-02-17T06:27:16.991Z,10.00
2023-02-17T06:32:20.205Z,10.10
2023-02-17T06:37:24.842Z,10.10
2023-02-17T06:42:28.105Z,10.20
2023-02-17T06:47:31.461Z,10.20
2023-02-17T06:52:36.882Z,10.20
2023-02-17T06:57:40.610Z,10.20
2023-02-17T07:02:43.890Z,10.30
2023-02-17T07:07:48.552Z,10.30
2023-02-17T07:12:53.177Z,10.30
2023-02-17T07:17:56.504Z,10.40
2023-02-17T07:23:02.652Z,10.40
2023-02-17T07:28:06.197Z,10.40
2023-02-17T07:33:09.983Z,10.50
2023-02-17T07:38:14.758Z,10.50
2023-02-17T07:43:18.075Z,10.50
2023-02-17T07:48:22.000Z,10.60
2023-02-17T07:53:26.758Z,10.60
2023-02-17T07:58:30.069Z,10.70
2023-02-17T08:03:33.759Z,10.70
2023-02-17T08:08:55.614Z,10.70
2023-02-17T08:13:58.880Z,10.80
2023-02-17T08:19:02.163Z,10.90
2023-02-17T08:24:07.573Z,11.00
2023-02-17T08:29:10.864Z,11.10
2023-02-17T08:34:14.789Z,11.10
2023-02-17T08:39:19.653Z,11.30
2023-02-17T08:44:23.507Z,11.40
2023-02-17T08:49:30.134Z,11.60
2023-02-17T08:54:35.123Z,11.80
2023-02-17T08:59:38.345Z,11.90
2023-02-17T09:04:41.625Z,11.90
2023-02-17T09:09:46.450Z,11.90
2023-02-17T09:14:50.038Z,11.80
2023-02-17T09:19:53.725Z,11.90
2023-02-17T09:24:58.523Z,12.00
2023-02-17T09:30:02.760Z,12.00
2023-02-17T09:35:07.012Z,12.00
2023-02-17T09:40:19.774Z,12.00
2023-02-17T09:45:27.936Z,12.10
2023-02-17T09:50:38.580Z,12.30
2023-02-17T09:55:49.065Z,12.40
2023-02-17T10:00:56.009Z,12.40
2023-02-17T10:06:11.595Z,12.30
2023-02-17T10:11:24.490Z,12.20
2023-02-17T10:16:35.878Z,12.10
2023-02-17T10:21:43.800Z,12.00
2023-02-17T10:27:02.003Z,12.00
2023-02-17T10:32:22.238Z,12.00
2023-02-17T10:37:32.972Z,11.80
2023-02-17T10:42:39.629Z,11.90
2023-02-17T10:47:43.196Z,12.20
2023-02-17T10:52:48.827Z,12.30
2023-02-17T10:57:58.805Z,12.40
2023-02-17T11:03:04.082Z,12.60
2023-02-17T11:08:22.206Z,12.70
2023-02-17T11:13:34.402Z,12.90
2023-02-17T11:18:45.730Z,13.10
2023-02-17T11:23:52.652Z,13.00
2023-02-17T11:29:07.728Z,13.00
2023-02-17T11:34:16.537Z,12.90
2023-02-17T11:39:21.703Z,12.80
2023-02-17T11:44:28.306Z,12.80
2023-02-17T11:49:52.686Z,12.80
2023-02-17T11:55:13.276Z,13.00
2023-02-17T12:00:20.736Z,13.20
2023-02-17T12:05:29.034Z,13.40
2023-02-17T12:10:46.852Z,13.50
2023-02-17T12:16:10.831Z,13.60
2023-02-17T12:21:22.222Z,13.70
2023-02-17T12:26:35.985Z,13.70
2023-02-17T12:32:01.532Z,13.80
2023-02-17T12:37:06.885Z,13.70
2023-02-17T12:42:15.117Z,13.60
2023-02-17T12:47:25.295Z,13.60
2023-02-17T12:52:32.009Z,13.60
2023-02-17T12:57:43.171Z,13.60
2023-02-17T13:02:48.496Z,13.60
2023-02-17T13:07:59.075Z,13.50
2023-02-17T13:13:05.552Z,13.50
2023-02-17T13:18:14.873Z,13.60
2023-02-17T13:23:34.901Z,13.60
2023-02-17T13:28:39.795Z,13.60
2023-02-17T13:33:50.710Z,13.50
2023-02-17T13:38:59.812Z,13.40
2023-02-17T13:44:29.875Z,13.50
2023-02-17T13:49:35.388Z,13.50
2023-02-17T13:54:38.378Z,13.60
2023-02-17T13:59:41.660Z,13.60
2023-02-17T14:04:46.327Z,13.70
2023-02-17T14:09:54.461Z,13.80
2023-02-17T14:14:57.724Z,13.80
2023-02-17T14:20:02.399Z,13.90
2023-02-17T14:25:07.930Z,13.90
2023-02-17T14:30:14.340Z,14.00
2023-02-17T14:35:24.474Z,14.20
2023-02-17T14:40:27.990Z,14.40
2023-02-17T14:45:31.206Z,14.50
2023-02-17T14:50:42.161Z,14.50
2023-02-17T14:55:49.005Z,14.60
2023-02-17T15:00:52.699Z,14.60
2023-02-17T15:05:57.866Z,14.60
2023-02-17T15:11:03.789Z,14.50
2023-02-17T15:16:08.398Z,14.40
2023-02-17T15:21:26.020Z,14.30
2023-02-17T15:26:31.184Z,14.30
2023-02-17T15:31:36.310Z,14.30
2023-02-17T15:36:41.895Z,14.30
2023-02-17T15:41:46.081Z,14.30
2023-02-17T15:46:52.832Z,14.30
2023-02-17T15:51:57.664Z,14.30
2023-02-17T15:57:02.231Z,14.30
2023-02-17T16:02:20.845Z,14.30
2023-02-17T16:07:26.238Z,14.30
2023-02-17T16:12:29.509Z,14.20
2023-02-17T16:17:32.807Z,14.20
2023-02-17T16:22:37.355Z,14.20
2023-02-17T16:27:41.457Z,14.10
2023-02-17T16:32:44.680Z,14.00
2023-02-17T16:37:55.984Z,14.00
2023-02-17T16:42:59.928Z,14.10
2023-02-17T16:48:03.990Z,14.10
2023-02-17T16:53:09.898Z,14.10
2023-02-17T16:58:16.330Z,13.90
2023-02-17T17:03:20.398Z,13.40
2023-02-17T17:08:25.020Z,12.80
2023-02-17T17:13:28.459Z,12.40
2023-02-17T17:18:31.710Z,12.00
2023-02-17T17:23:36.318Z,11.80
2023-02-17T17:28:39.563Z,11.70
2023-02-17T17:33:42.932Z,11.70
2023-02-17T17:38:47.974Z,11.70
2023-02-17T17:43:52.073Z,11.60
2023-02-17T17:48:55.850Z,11.60
2023-02-17T17:54:00.587Z,11.60
2023-02-17T17:59:06.269Z,11.60
2023-02-17T18:04:09.517Z,11.60
2023-02-17T18:09:31.157Z,11.60
2023-02-17T18:14:37.612Z,11.60
2023-02-17T18:19:41.511Z,11.70
2023-02-17T18:24:47.477Z,11.80
2023-02-17T18:29:51.072Z,11.80
2023-02-17T18:34:57.050Z,11.80
2023-02-17T18:40:03.221Z,11.80
2023-02-17T18:45:07.545Z,11.80
2023-02-17T18:50:12.134Z,11.80
2023-02-17T18:55:17.204Z,11.80
2023-02-17T19:00:20.894Z,11.70
2023-02-17T19:05:24.322Z,11.80
2023-02-17T19:10:28.943Z,11.80
2023-02-17T19:15:32.577Z,11.70
2023-02-17T19:20:35.893Z,11.70
2023-02-17T19:25:40.595Z,11.70
2023-02-17T19:30:43.941Z,11.50
2023-02-17T19:35:47.122Z,11.40
2023-02-17T19:40:51.788Z,11.30
2023-02-17T19:45:54.991Z,11.20
2023-02-17T19:51:01.408Z,11.20
2023-02-17T19:56:12.073Z,11.20
2023-02-17T20:01:17.982Z,11.40
2023-02-17T20:06:22.920Z,11.50
2023-02-17T20:11:28.996Z,11.60
2023-02-17T20:16:32.574Z,11.70
2023-02-17T20:21:40.255Z,11.80
2023-02-17T20:26:47.415Z,11.90
2023-02-17T20:31:50.856Z,12.00
2023-02-17T20:36:54.526Z,12.10
2023-02-17T20:41:59.245Z,12.10
2023-02-17T20:47:03.043Z,12.10
2023-02-17T20:52:06.873Z,11.90
2023-02-17T20:57:15.295Z,11.70
2023-02-17T21:02:18.608Z,11.60
2023-02-17T21:07:21.856Z,11.40
2023-02-17T21:12:26.545Z,11.20
2023-02-17T21:17:29.815Z,10.90
2023-02-17T21:22:33.429Z,10.40
2023-02-17T21:27:38.680Z,10.00
2023-02-17T21:32:42.832Z,9.70
2023-02-17T21:37:46.154Z,9.50
2023-02-17T21:43:08.003Z,9.40
2023-02-17T21:48:11.363Z,9.30
2023-02-17T21:53:15.823Z,9.20
2023-02-17T21:58:20.538Z,9.10
2023-02-17T22:03:23.851Z,9.10
2023-02-17T22:08:27.162Z,9.10
2023-02-17T22:13:31.829Z,9.10
2023-02-17T22:18:35.030Z,9.30
2023-02-17T22:23:40.635Z,9.10
2023-02-17T22:28:45.148Z,9.20
2023-02-17T22:33:49.200Z,9.20
2023-02-17T22:38:52.615Z,9.20
2023-02-17T22:43:57.616Z,9.20
2023-02-17T22:49:01.054Z,9.20
2023-02-17T22:54:04.605Z,9.30
2023-02-17T22:59:09.746Z,9.30
2023-02-17T23:04:16.968Z,9.40
2023-02-17T23:09:21.096Z,9.50
2023-02-17T23:14:27.742Z,9.60
2023-02-17T23:19:31.807Z,9.60
2023-02-17T23:24:35.214Z,9.50
2023-02-17T23:29:41.542Z,9.50
2023-02-17T23:34:45.165Z,9.50
2023-02-17T23:39:48.426Z,9.40
2023-02-17T23:44:53.823Z,9.30
2023-02-17T23:49:57.104Z,9.20
2023-02-17T23:55:00.379Z,9.20
